createdAt,value
2019-04-30T00:00:34.772Z,0.00
2019-04-30T00:01:33.566Z,0.00
2019-04-30T00:02:38.389Z,0.00
2019-04-30T00:03:35.255Z,0.00
2019-04-30T00:04:37.643Z,0.00
2019-04-30T00:05:35.255Z,0.00
2019-04-30T00:06:34.670Z,0.00
2019-04-30T00:07:33.473Z,0.00
2019-04-30T00:08:35.481Z,0.00
2019-04-30T00:09:35.127Z,0.00
2019-04-30T00:10:36.881Z,0.00
2019-04-30T00:11:33.425Z,0.00
2019-04-30T00:12:35.930Z,0.00
2019-04-30T00:13:33.423Z,0.00
2019-04-30T00:14:37.617Z,0.00
2019-04-30T00:15:35.584Z,0.00
2019-04-30T00:16:37.516Z,0.00
2019-04-30T00:17:33.358Z,0.00
2019-04-30T00:18:37.911Z,0.00
2019-04-30T00:19:33.337Z,0.00
2019-04-30T00:20:37.259Z,0.00
2019-04-30T00:21:33.323Z,0.00
2019-04-30T00:22:34.310Z,0.00
2019-04-30T00:23:33.319Z,0.00
2019-04-30T00:24:32.310Z,0.00
2019-04-30T00:25:32.298Z,0.00
2019-04-30T00:26:32.313Z,0.00
2019-04-30T00:27:32.258Z,0.00
2019-04-30T00:28:32.262Z,0.00
2019-04-30T00:29:32.234Z,0.00
2019-04-30T00:30:32.216Z,0.00
2019-04-30T00:31:32.214Z,0.00
2019-04-30T00:32:32.219Z,0.00
2019-04-30T00:33:32.222Z,0.00
2019-04-30T00:34:37.889Z,0.00
2019-04-30T00:35:33.186Z,0.00
2019-04-30T00:36:34.007Z,0.00
2019-04-30T00:37:32.177Z,0.00
2019-04-30T00:38:34.350Z,0.00
2019-04-30T00:39:33.141Z,0.00
2019-04-30T00:40:32.147Z,0.00
2019-04-30T00:41:32.119Z,0.00
2019-04-30T00:42:32.091Z,0.00
2019-04-30T00:43:32.272Z,0.00
2019-04-30T00:44:32.100Z,0.00
2019-04-30T00:45:32.078Z,0.00
2019-04-30T00:46:32.071Z,0.00
2019-04-30T00:47:32.086Z,0.00
2019-04-30T00:48:32.064Z,0.00
2019-04-30T00:49:32.106Z,0.00
2019-04-30T00:50:33.948Z,0.00
2019-04-30T00:51:32.996Z,0.00
2019-04-30T00:52:33.958Z,0.00
2019-04-30T00:53:31.970Z,0.00
2019-04-30T00:54:31.978Z,0.00
2019-04-30T00:55:31.975Z,0.00
2019-04-30T00:56:31.939Z,0.00
2019-04-30T00:57:31.931Z,0.00
2019-04-30T00:58:31.926Z,0.00
2019-04-30T00:59:31.924Z,0.00
2019-04-30T01:00:31.896Z,0.00
2019-04-30T01:01:31.904Z,0.00
2019-04-30T01:02:32.355Z,0.00
2019-04-30T01:03:31.872Z,0.00
2019-04-30T01:04:31.879Z,0.00
2019-04-30T01:05:31.843Z,0.00
2019-04-30T01:06:31.833Z,0.00
2019-04-30T01:07:31.815Z,0.00
2019-04-30T01:08:31.834Z,0.00
2019-04-30T01:09:31.829Z,0.00
2019-04-30T01:10:31.843Z,0.00
2019-04-30T01:11:31.773Z,0.00
2019-04-30T01:12:36.389Z,0.00
2019-04-30T01:13:32.755Z,0.00
2019-04-30T01:14:32.145Z,0.00
2019-04-30T01:15:31.741Z,0.00
2019-04-30T01:16:33.180Z,0.00
2019-04-30T01:17:31.713Z,0.00
2019-04-30T01:18:32.146Z,0.00
2019-04-30T01:19:32.842Z,0.00
2019-04-30T01:20:32.879Z,0.00
2019-04-30T01:21:31.666Z,0.00
2019-04-30T01:22:32.894Z,0.00
2019-04-30T01:23:31.678Z,0.00
2019-04-30T01:24:31.848Z,0.00
2019-04-30T01:25:31.660Z,0.00
2019-04-30T01:26:31.612Z,0.00
2019-04-30T01:27:31.612Z,0.00
2019-04-30T01:28:31.597Z,0.00
2019-04-30T01:29:38.149Z,0.00
2019-04-30T01:30:32.599Z,0.00
2019-04-30T01:31:37.233Z,0.00
2019-04-30T01:32:32.548Z,0.00
2019-04-30T01:33:34.599Z,0.00
2019-04-30T01:34:31.527Z,0.00
2019-04-30T01:35:32.861Z,0.00
2019-04-30T01:36:31.525Z,0.00
2019-04-30T01:37:32.829Z,0.00
2019-04-30T01:38:31.492Z,0.00
2019-04-30T01:39:31.698Z,0.00
2019-04-30T01:40:31.459Z,0.00
2019-04-30T01:41:31.559Z,0.00
2019-04-30T01:42:31.448Z,0.00
2019-04-30T01:43:34.530Z,0.00
2019-04-30T01:44:31.426Z,0.00
2019-04-30T01:45:31.787Z,0.00
2019-04-30T01:46:31.459Z,0.00
2019-04-30T01:47:31.491Z,0.00
2019-04-30T01:48:31.401Z,0.00
2019-04-30T01:49:41.748Z,0.00
2019-04-30T01:50:33.843Z,0.00
2019-04-30T01:51:32.369Z,0.00
2019-04-30T01:52:35.139Z,0.00
2019-04-30T01:53:31.332Z,0.00
2019-04-30T01:54:31.342Z,0.00
2019-04-30T01:55:31.305Z,0.00
2019-04-30T01:56:31.328Z,0.00
2019-04-30T01:57:31.284Z,0.00
2019-04-30T01:58:33.402Z,0.00
2019-04-30T01:59:31.285Z,0.00
2019-04-30T02:00:31.272Z,0.00
2019-04-30T02:01:31.335Z,0.00
2019-04-30T02:02:31.232Z,0.00
2019-04-30T02:03:31.219Z,0.00
2019-04-30T02:04:31.504Z,0.00
2019-04-30T02:05:31.229Z,0.00
2019-04-30T02:06:31.207Z,0.00
2019-04-30T02:07:31.221Z,0.00
2019-04-30T02:08:31.162Z,0.00
2019-04-30T02:09:31.146Z,0.00
2019-04-30T02:10:31.158Z,0.00
2019-04-30T02:11:31.165Z,0.00
2019-04-30T02:12:31.154Z,0.00
2019-04-30T02:13:34.290Z,0.00
2019-04-30T02:14:31.101Z,0.00
2019-04-30T02:15:31.080Z,0.00
2019-04-30T02:16:31.090Z,0.00
2019-04-30T02:17:31.092Z,0.00
2019-04-30T02:18:31.046Z,0.00
2019-04-30T02:19:31.249Z,0.00
2019-04-30T02:20:31.029Z,0.00
2019-04-30T02:21:33.319Z,0.00
2019-04-30T02:22:31.189Z,0.00
2019-04-30T02:23:31.011Z,0.00
2019-04-30T02:24:31.003Z,0.00
2019-04-30T02:25:30.975Z,0.00
2019-04-30T02:26:30.982Z,0.00
2019-04-30T02:27:30.958Z,0.00
2019-04-30T02:28:30.956Z,0.00
2019-04-30T02:29:30.929Z,0.00
2019-04-30T02:30:31.227Z,0.00
2019-04-30T02:31:31.111Z,0.00
2019-04-30T02:32:30.936Z,0.00
2019-04-30T02:33:30.943Z,0.00
2019-04-30T02:34:30.887Z,0.00
2019-04-30T02:35:30.863Z,0.00
2019-04-30T02:36:30.878Z,0.00
2019-04-30T02:37:30.847Z,0.00
2019-04-30T02:38:30.833Z,0.00
2019-04-30T02:39:30.839Z,0.00
2019-04-30T02:40:30.816Z,0.00
2019-04-30T02:41:30.825Z,0.00
2019-04-30T02:42:30.790Z,0.00
2019-04-30T02:43:30.777Z,0.00
2019-04-30T02:44:30.769Z,0.00
2019-04-30T02:45:30.804Z,0.00
2019-04-30T02:46:32.359Z,0.00
2019-04-30T02:47:30.735Z,0.00
2019-04-30T02:48:30.718Z,0.00
2019-04-30T02:49:30.713Z,0.00
2019-04-30T02:50:30.701Z,0.00
2019-04-30T02:51:30.739Z,0.00
2019-04-30T02:52:30.707Z,0.00
2019-04-30T02:53:30.679Z,0.00
2019-04-30T02:54:30.674Z,0.00
2019-04-30T02:55:30.647Z,0.00
2019-04-30T02:56:30.651Z,0.00
2019-04-30T02:57:30.662Z,0.00
2019-04-30T02:58:30.624Z,0.00
2019-04-30T02:59:30.608Z,0.00
2019-04-30T03:00:32.903Z,0.00
2019-04-30T03:01:30.746Z,0.00
2019-04-30T03:02:30.583Z,0.00
2019-04-30T03:03:30.570Z,0.00
2019-04-30T03:04:30.555Z,0.00
2019-04-30T03:05:31.091Z,0.00
2019-04-30T03:06:30.700Z,0.00
2019-04-30T03:07:30.558Z,0.00
2019-04-30T03:08:30.538Z,0.00
2019-04-30T03:09:30.499Z,0.00
2019-04-30T03:10:30.496Z,0.00
2019-04-30T03:11:30.549Z,0.00
2019-04-30T03:12:33.609Z,0.00
2019-04-30T03:13:30.480Z,0.00
2019-04-30T03:14:30.462Z,0.00
2019-04-30T03:15:30.452Z,0.00
2019-04-30T03:16:30.468Z,0.00
2019-04-30T03:17:30.419Z,0.00
2019-04-30T03:18:30.405Z,0.00
2019-04-30T03:19:30.406Z,0.00
2019-04-30T03:20:35.704Z,0.00
2019-04-30T03:21:32.000Z,0.00
2019-04-30T03:22:30.386Z,0.00
2019-04-30T03:23:30.396Z,0.00
2019-04-30T03:24:30.339Z,0.00
2019-04-30T03:25:30.327Z,0.00
2019-04-30T03:26:30.313Z,0.00
2019-04-30T03:27:30.380Z,0.00
2019-04-30T03:28:30.350Z,0.00
2019-04-30T03:29:30.574Z,0.00
2019-04-30T03:30:32.040Z,0.00
2019-04-30T03:31:32.448Z,0.00
2019-04-30T03:32:31.791Z,0.00
2019-04-30T03:33:32.667Z,0.00
2019-04-30T03:34:32.725Z,0.00
2019-04-30T03:35:32.188Z,0.00
2019-04-30T03:36:32.651Z,0.00
2019-04-30T03:37:30.220Z,0.00
2019-04-30T03:38:30.229Z,4.00
2019-04-30T03:39:33.629Z,4.00
2019-04-30T03:40:30.310Z,4.00
2019-04-30T03:41:33.406Z,0.00
2019-04-30T03:42:30.169Z,4.00
2019-04-30T03:43:30.327Z,4.00
2019-04-30T03:44:32.482Z,4.00
2019-04-30T03:45:30.272Z,4.00
2019-04-30T03:46:30.130Z,4.00
2019-04-30T03:47:30.312Z,8.00
2019-04-30T03:48:30.085Z,8.00
2019-04-30T03:49:30.098Z,8.00
2019-04-30T03:50:48.143Z,8.00
2019-04-30T03:51:31.109Z,12.00
2019-04-30T03:52:30.033Z,12.00
2019-04-30T03:53:30.064Z,16.00
2019-04-30T03:54:30.020Z,16.00
2019-04-30T03:55:30.166Z,16.00
2019-04-30T03:56:30.108Z,24.00
2019-04-30T03:57:30.394Z,24.00
2019-04-30T03:58:29.988Z,28.00
2019-04-30T03:59:30.400Z,32.00
2019-04-30T04:00:30.062Z,36.00
2019-04-30T04:01:29.967Z,40.00
2019-04-30T04:02:30.314Z,48.00
2019-04-30T04:03:29.916Z,52.00
2019-04-30T04:04:30.973Z,60.00
2019-04-30T04:05:30.056Z,68.00
2019-04-30T04:06:29.925Z,72.00
2019-04-30T04:07:30.195Z,80.00
2019-04-30T04:08:29.873Z,92.00
2019-04-30T04:09:30.189Z,100.00
2019-04-30T04:10:29.901Z,108.00
2019-04-30T04:11:30.010Z,116.00
2019-04-30T04:12:30.616Z,128.00
2019-04-30T04:13:33.014Z,132.00
2019-04-30T04:14:29.809Z,136.00
2019-04-30T04:15:30.045Z,144.00
2019-04-30T04:16:32.238Z,152.00
2019-04-30T04:17:31.450Z,152.00
2019-04-30T04:18:30.248Z,156.00
2019-04-30T04:19:29.740Z,160.00
2019-04-30T04:20:29.967Z,168.00
2019-04-30T04:21:30.047Z,188.00
2019-04-30T04:22:30.649Z,212.00
2019-04-30T04:23:32.771Z,228.00
2019-04-30T04:24:30.229Z,244.00
2019-04-30T04:25:30.046Z,256.00
2019-04-30T04:26:29.983Z,244.00
2019-04-30T04:27:30.420Z,240.00
2019-04-30T04:28:30.026Z,268.00
2019-04-30T04:29:29.973Z,284.00
2019-04-30T04:30:29.985Z,312.00
2019-04-30T04:31:29.985Z,340.00
2019-04-30T04:32:30.847Z,392.00
2019-04-30T04:33:29.809Z,472.00
2019-04-30T04:34:30.289Z,504.00
2019-04-30T04:35:30.178Z,520.00
2019-04-30T04:36:30.149Z,540.00
2019-04-30T04:37:30.357Z,548.00
2019-04-30T04:38:30.349Z,556.00
2019-04-30T04:39:29.818Z,584.00
2019-04-30T04:40:30.217Z,632.00
2019-04-30T04:41:29.755Z,672.00
2019-04-30T04:42:32.887Z,712.00
2019-04-30T04:43:30.064Z,708.00
2019-04-30T04:44:29.615Z,664.00
2019-04-30T04:45:30.529Z,664.00
2019-04-30T04:46:30.799Z,700.00
2019-04-30T04:47:30.868Z,728.00
2019-04-30T04:48:29.918Z,716.00
2019-04-30T04:49:30.562Z,672.00
2019-04-30T04:50:30.231Z,596.00
2019-04-30T04:51:38.116Z,532.00
2019-04-30T04:52:31.415Z,564.00
2019-04-30T04:53:30.469Z,564.00
2019-04-30T04:54:30.026Z,572.00
2019-04-30T04:55:30.028Z,596.00
2019-04-30T04:56:30.432Z,620.00
2019-04-30T04:57:30.312Z,576.00
2019-04-30T04:58:30.263Z,552.00
2019-04-30T04:59:29.801Z,568.00
2019-04-30T05:00:29.552Z,588.00
2019-04-30T05:01:29.294Z,720.00
2019-04-30T05:02:32.391Z,880.00
2019-04-30T05:03:29.819Z,980.00
2019-04-30T05:04:29.874Z,844.00
2019-04-30T05:05:29.901Z,740.00
2019-04-30T05:06:29.835Z,748.00
2019-04-30T05:07:29.256Z,764.00
2019-04-30T05:08:29.217Z,684.00
2019-04-30T05:09:29.245Z,684.00
2019-04-30T05:10:29.270Z,744.00
2019-04-30T05:11:31.576Z,992.00
2019-04-30T05:12:29.773Z,1224.00
2019-04-30T05:13:29.217Z,1120.00
2019-04-30T05:14:29.149Z,1068.00
2019-04-30T05:15:29.599Z,1052.00
2019-04-30T05:16:29.127Z,1216.00
2019-04-30T05:17:29.714Z,1336.00
2019-04-30T05:18:29.264Z,1308.00
2019-04-30T05:19:29.094Z,1140.00
2019-04-30T05:20:29.322Z,1004.00
2019-04-30T05:21:41.426Z,1056.00
2019-04-30T05:22:30.079Z,1068.00
2019-04-30T05:23:29.856Z,1324.00
2019-04-30T05:24:29.052Z,1456.00
2019-04-30T05:25:29.609Z,1308.00
2019-04-30T05:26:29.028Z,1432.00
2019-04-30T05:27:30.317Z,1704.00
2019-04-30T05:28:30.094Z,1904.00
2019-04-30T05:29:29.047Z,1884.00
2019-04-30T05:30:29.530Z,2336.00
2019-04-30T05:31:29.088Z,2540.00
2019-04-30T05:32:29.290Z,2648.00
2019-04-30T05:33:28.962Z,2888.00
2019-04-30T05:34:28.971Z,2908.00
2019-04-30T05:35:31.093Z,2784.00
2019-04-30T05:36:29.311Z,2848.00
2019-04-30T05:37:28.894Z,2968.00
2019-04-30T05:38:31.229Z,2820.00
2019-04-30T05:39:28.882Z,2612.00
2019-04-30T05:40:28.868Z,2788.00
2019-04-30T05:41:29.071Z,3228.00
2019-04-30T05:42:28.869Z,3256.00
2019-04-30T05:43:29.094Z,3672.00
2019-04-30T05:44:29.875Z,5132.00
2019-04-30T05:45:29.109Z,6148.00
2019-04-30T05:46:29.888Z,5116.00
2019-04-30T05:47:29.222Z,4768.00
2019-04-30T05:48:28.844Z,4996.00
2019-04-30T05:49:28.839Z,5688.00
2019-04-30T05:50:29.619Z,6232.00
2019-04-30T05:51:29.004Z,5552.00
2019-04-30T05:52:29.522Z,5776.00
2019-04-30T05:53:28.897Z,5400.00
2019-04-30T05:54:29.210Z,5716.00
2019-04-30T05:55:29.482Z,5744.00
2019-04-30T05:56:30.373Z,5904.00
2019-04-30T05:57:29.470Z,6208.00
2019-04-30T05:58:30.013Z,6068.00
2019-04-30T05:59:29.045Z,5404.00
2019-04-30T06:00:30.482Z,4692.00
2019-04-30T06:01:29.546Z,5120.00
2019-04-30T06:02:33.571Z,5380.00
2019-04-30T06:03:33.078Z,5480.00
2019-04-30T06:04:29.399Z,5500.00
2019-04-30T06:05:28.709Z,6108.00
2019-04-30T06:06:29.027Z,7048.00
2019-04-30T06:07:29.909Z,8600.00
2019-04-30T06:08:29.214Z,21600.00
2019-04-30T06:09:31.593Z,32224.00
2019-04-30T06:10:29.596Z,36416.00
2019-04-30T06:11:29.260Z,22848.00
2019-04-30T06:12:28.537Z,20416.00
2019-04-30T06:13:28.760Z,31136.00
2019-04-30T06:14:28.731Z,29760.00
2019-04-30T06:15:29.112Z,33536.00
2019-04-30T06:16:29.813Z,17920.00
2019-04-30T06:17:29.398Z,15972.00
2019-04-30T06:18:28.782Z,16512.00
2019-04-30T06:19:29.262Z,16768.00
2019-04-30T06:20:28.827Z,16132.00
2019-04-30T06:21:29.502Z,16116.00
2019-04-30T06:22:28.881Z,16704.00
2019-04-30T06:23:29.373Z,18752.00
2019-04-30T06:24:30.207Z,21600.00
2019-04-30T06:25:37.332Z,22400.00
2019-04-30T06:26:29.608Z,35872.00
2019-04-30T06:27:29.125Z,27680.00
2019-04-30T06:28:29.255Z,28992.00
2019-04-30T06:29:29.035Z,27744.00
2019-04-30T06:30:29.687Z,23104.00
2019-04-30T06:31:34.275Z,17888.00
2019-04-30T06:32:29.585Z,14668.00
2019-04-30T06:33:29.116Z,12896.00
2019-04-30T06:34:29.461Z,11244.00
2019-04-30T06:35:29.371Z,9876.00
2019-04-30T06:36:28.609Z,9356.00
2019-04-30T06:37:28.854Z,12180.00
2019-04-30T06:38:29.159Z,12344.00
2019-04-30T06:39:28.832Z,13620.00
2019-04-30T06:40:29.279Z,14672.00
2019-04-30T06:41:29.593Z,15272.00
2019-04-30T06:42:29.332Z,21888.00
2019-04-30T06:43:28.757Z,20064.00
2019-04-30T06:44:37.041Z,18944.00
2019-04-30T06:45:29.197Z,36288.00
2019-04-30T06:46:28.641Z,28864.00
2019-04-30T06:47:33.251Z,37920.00
2019-04-30T06:48:29.533Z,25824.00
2019-04-30T06:49:28.892Z,26784.00
2019-04-30T06:50:29.297Z,30880.00
2019-04-30T06:51:30.544Z,27936.00
2019-04-30T06:52:29.324Z,31008.00
2019-04-30T06:53:29.229Z,25024.00
2019-04-30T06:54:28.746Z,24800.00
2019-04-30T06:55:30.658Z,25568.00
2019-04-30T06:56:28.927Z,26400.00
2019-04-30T06:57:29.495Z,25568.00
2019-04-30T06:58:29.170Z,25792.00
2019-04-30T06:59:29.887Z,28384.00
2019-04-30T07:00:35.071Z,28544.00
2019-04-30T07:01:29.193Z,27808.00
2019-04-30T07:02:30.667Z,26048.00
2019-04-30T07:03:29.066Z,28896.00
2019-04-30T07:04:29.301Z,33696.00
2019-04-30T07:05:28.583Z,44448.00
2019-04-30T07:06:32.321Z,38880.00
2019-04-30T07:07:37.009Z,34208.00
2019-04-30T07:08:38.141Z,18848.00
2019-04-30T07:09:33.523Z,16420.00
2019-04-30T07:10:29.447Z,15444.00
2019-04-30T07:11:29.288Z,16452.00
2019-04-30T07:12:30.403Z,18368.00
2019-04-30T07:13:29.644Z,19968.00
2019-04-30T07:14:29.246Z,17600.00
2019-04-30T07:15:29.611Z,13712.00
2019-04-30T07:16:29.678Z,12424.00
2019-04-30T07:17:29.234Z,11680.00
2019-04-30T07:18:28.859Z,11560.00
2019-04-30T07:19:32.899Z,13148.00
2019-04-30T07:20:29.249Z,16800.00
2019-04-30T07:21:31.233Z,24192.00
2019-04-30T07:22:39.454Z,21056.00
2019-04-30T07:23:28.800Z,15280.00
2019-04-30T07:24:29.545Z,13184.00
2019-04-30T07:25:29.327Z,12864.00
2019-04-30T07:26:28.957Z,13404.00
2019-04-30T07:27:30.128Z,17312.00
2019-04-30T07:28:43.732Z,22368.00
2019-04-30T07:29:29.580Z,27584.00
2019-04-30T07:30:30.700Z,31136.00
2019-04-30T07:31:29.502Z,32672.00
2019-04-30T07:32:28.794Z,26272.00
2019-04-30T07:33:29.419Z,31648.00
2019-04-30T07:34:30.296Z,23680.00
2019-04-30T07:35:29.270Z,19264.00
2019-04-30T07:36:43.281Z,16060.00
2019-04-30T07:37:29.373Z,13008.00
2019-04-30T07:38:29.468Z,12748.00
2019-04-30T07:39:29.275Z,14832.00
2019-04-30T07:40:29.240Z,19840.00
2019-04-30T07:41:30.802Z,21248.00
2019-04-30T07:42:29.455Z,22784.00
2019-04-30T07:43:28.928Z,25664.00
2019-04-30T07:44:35.502Z,27488.00
2019-04-30T07:45:31.598Z,25344.00
2019-04-30T07:46:29.781Z,24480.00
2019-04-30T07:47:29.576Z,34656.00
2019-04-30T07:48:29.699Z,35360.00
2019-04-30T07:49:46.486Z,35488.00
2019-04-30T07:50:31.329Z,29728.00
2019-04-30T07:51:30.888Z,30912.00
2019-04-30T07:52:33.272Z,36032.00
2019-04-30T07:53:30.788Z,37856.00
2019-04-30T07:54:27.412Z,26720.00
2019-04-30T07:55:29.507Z,26560.00
2019-04-30T07:56:29.265Z,27168.00
2019-04-30T07:57:29.254Z,42752.00
2019-04-30T07:58:29.878Z,98208.00
2019-04-30T07:59:30.048Z,95232.00
2019-04-30T08:00:31.021Z,103616.00
2019-04-30T08:01:29.039Z,98976.00
2019-04-30T08:02:29.677Z,95840.00
2019-04-30T08:03:29.991Z,32224.00
2019-04-30T08:04:29.278Z,30368.00
2019-04-30T08:05:29.729Z,31392.00
2019-04-30T08:06:27.342Z,31488.00
2019-04-30T08:07:29.538Z,70944.00
2019-04-30T08:08:27.285Z,79680.00
2019-04-30T08:09:36.606Z,97568.00
2019-04-30T08:10:29.695Z,102656.00
2019-04-30T08:11:29.199Z,28288.00
2019-04-30T08:12:31.851Z,29408.00
2019-04-30T08:13:31.907Z,99776.00
2019-04-30T08:14:28.798Z,41120.00
2019-04-30T08:15:27.196Z,93184.00
2019-04-30T08:16:28.757Z,93376.00
2019-04-30T08:17:28.930Z,39264.00
2019-04-30T08:18:27.164Z,91040.00
2019-04-30T08:19:28.696Z,99488.00
2019-04-30T08:20:27.155Z,100384.00
2019-04-30T08:21:28.803Z,104928.00
2019-04-30T08:22:27.172Z,102432.00
2019-04-30T08:23:36.318Z,78848.00
2019-04-30T08:24:29.185Z,58144.00
2019-04-30T08:25:29.068Z,55648.00
2019-04-30T08:26:28.649Z,41728.00
2019-04-30T08:27:29.483Z,25920.00
2019-04-30T08:28:30.160Z,25920.00
2019-04-30T08:29:27.081Z,51968.00
2019-04-30T08:30:29.758Z,29376.00
2019-04-30T08:31:29.077Z,97152.00
2019-04-30T08:32:29.013Z,101280.00
2019-04-30T08:33:29.053Z,43488.00
2019-04-30T08:34:29.118Z,27968.00
2019-04-30T08:35:26.988Z,46656.00
2019-04-30T08:36:26.985Z,97888.00
2019-04-30T08:37:28.704Z,64960.00
2019-04-30T08:38:26.977Z,21504.00
2019-04-30T08:39:26.950Z,33760.00
2019-04-30T08:40:26.943Z,20576.00
2019-04-30T08:41:26.930Z,20256.00
2019-04-30T08:42:31.629Z,19616.00
2019-04-30T08:43:29.235Z,23264.00
2019-04-30T08:44:26.919Z,41888.00
2019-04-30T08:45:26.905Z,41024.00
2019-04-30T08:46:28.578Z,91104.00
2019-04-30T08:47:28.961Z,91680.00
2019-04-30T08:48:41.680Z,93440.00
2019-04-30T08:49:30.121Z,96512.00
2019-04-30T08:50:26.837Z,90656.00
2019-04-30T08:51:30.476Z,88864.00
2019-04-30T08:52:26.835Z,29664.00
2019-04-30T08:53:30.637Z,23872.00
2019-04-30T08:54:29.481Z,30272.00
2019-04-30T08:55:26.782Z,88416.00
2019-04-30T08:56:26.789Z,96832.00
2019-04-30T08:57:26.765Z,94496.00
2019-04-30T08:58:29.031Z,97056.00
2019-04-30T08:59:26.744Z,100064.00
2019-04-30T09:00:26.735Z,50208.00
2019-04-30T09:01:26.746Z,25184.00
2019-04-30T09:02:26.713Z,68064.00
2019-04-30T09:03:26.726Z,90272.00
2019-04-30T09:04:28.948Z,45664.00
2019-04-30T09:05:28.696Z,91456.00
2019-04-30T09:06:28.712Z,83264.00
2019-04-30T09:07:26.665Z,78912.00
2019-04-30T09:08:26.675Z,63712.00
2019-04-30T09:09:26.662Z,84608.00
2019-04-30T09:10:26.634Z,85792.00
2019-04-30T09:11:32.151Z,85024.00
2019-04-30T09:12:27.616Z,86592.00
2019-04-30T09:13:28.522Z,87296.00
2019-04-30T09:14:26.617Z,89376.00
2019-04-30T09:15:26.588Z,93568.00
2019-04-30T09:16:26.597Z,91488.00
2019-04-30T09:17:26.588Z,88192.00
2019-04-30T09:18:26.553Z,91712.00
2019-04-30T09:19:26.566Z,87808.00
2019-04-30T09:20:26.560Z,81568.00
2019-04-30T09:21:26.551Z,79168.00
2019-04-30T09:22:26.540Z,88704.00
2019-04-30T09:23:34.321Z,100064.00
2019-04-30T09:24:30.674Z,96224.00
2019-04-30T09:25:28.537Z,90496.00
2019-04-30T09:26:26.480Z,89376.00
2019-04-30T09:27:26.538Z,89632.00
2019-04-30T09:28:26.458Z,85280.00
2019-04-30T09:29:26.446Z,67008.00
2019-04-30T09:30:26.440Z,58560.00
2019-04-30T09:31:26.443Z,21504.00
2019-04-30T09:32:26.438Z,20000.00
2019-04-30T09:33:26.459Z,48032.00
2019-04-30T09:34:26.410Z,24864.00
2019-04-30T09:35:26.390Z,28864.00
2019-04-30T09:36:26.396Z,23552.00
2019-04-30T09:37:26.390Z,20352.00
2019-04-30T09:38:26.395Z,90368.00
2019-04-30T09:39:26.362Z,88896.00
2019-04-30T09:40:26.396Z,90816.00
2019-04-30T09:41:26.362Z,89984.00
2019-04-30T09:42:26.325Z,90176.00
2019-04-30T09:43:26.351Z,88256.00
2019-04-30T09:44:26.307Z,90080.00
2019-04-30T09:45:26.296Z,89888.00
2019-04-30T09:46:27.360Z,88128.00
2019-04-30T09:47:26.282Z,78400.00
2019-04-30T09:48:26.315Z,63296.00
2019-04-30T09:49:26.274Z,19328.00
2019-04-30T09:50:26.247Z,17280.00
2019-04-30T09:51:26.569Z,19360.00
2019-04-30T09:52:26.298Z,20704.00
2019-04-30T09:53:26.279Z,35936.00
2019-04-30T09:54:26.225Z,87520.00
2019-04-30T09:55:26.203Z,83840.00
2019-04-30T09:56:26.254Z,51840.00
2019-04-30T09:57:26.182Z,72512.00
2019-04-30T09:58:26.214Z,77056.00
2019-04-30T09:59:26.156Z,76640.00
2019-04-30T10:00:26.148Z,80512.00
2019-04-30T10:01:26.173Z,76832.00
2019-04-30T10:02:26.317Z,80928.00
2019-04-30T10:03:26.385Z,84704.00
2019-04-30T10:04:26.551Z,86368.00
2019-04-30T10:05:26.227Z,82016.00
2019-04-30T10:06:37.124Z,86304.00
2019-04-30T10:07:27.107Z,72256.00
2019-04-30T10:08:26.332Z,80288.00
2019-04-30T10:09:26.079Z,82144.00
2019-04-30T10:10:26.050Z,67968.00
2019-04-30T10:11:26.046Z,78592.00
2019-04-30T10:12:26.057Z,80672.00
2019-04-30T10:13:26.021Z,74016.00
2019-04-30T10:14:26.049Z,75392.00
2019-04-30T10:15:26.006Z,76320.00
2019-04-30T10:16:26.002Z,78304.00
2019-04-30T10:17:25.989Z,81632.00
2019-04-30T10:18:26.023Z,82176.00
2019-04-30T10:19:25.977Z,78720.00
2019-04-30T10:20:25.975Z,75104.00
2019-04-30T10:21:25.954Z,75232.00
2019-04-30T10:22:25.934Z,75552.00
2019-04-30T10:23:25.929Z,75232.00
2019-04-30T10:24:25.939Z,75456.00
2019-04-30T10:25:25.911Z,75072.00
2019-04-30T10:26:25.918Z,72000.00
2019-04-30T10:27:25.910Z,34752.00
2019-04-30T10:28:25.899Z,22848.00
2019-04-30T10:29:25.872Z,31968.00
2019-04-30T10:30:25.864Z,69152.00
2019-04-30T10:31:25.860Z,68800.00
2019-04-30T10:32:25.853Z,66080.00
2019-04-30T10:33:25.830Z,52096.00
2019-04-30T10:34:25.840Z,24384.00
2019-04-30T10:35:25.811Z,18080.00
2019-04-30T10:36:25.835Z,17728.00
2019-04-30T10:37:25.814Z,17064.00
2019-04-30T10:38:25.823Z,13760.00
2019-04-30T10:39:25.815Z,13284.00
2019-04-30T10:40:25.764Z,17600.00
2019-04-30T10:41:25.768Z,17888.00
2019-04-30T10:42:25.739Z,18432.00
2019-04-30T10:43:25.731Z,18464.00
2019-04-30T10:44:25.744Z,17984.00
2019-04-30T10:45:25.726Z,18272.00
2019-04-30T10:46:25.701Z,18176.00
2019-04-30T10:47:25.696Z,17188.00
2019-04-30T10:48:25.694Z,15984.00
2019-04-30T10:49:25.694Z,14544.00
2019-04-30T10:50:25.702Z,13536.00
2019-04-30T10:51:25.658Z,13188.00
2019-04-30T10:52:25.639Z,12900.00
2019-04-30T10:53:25.630Z,12716.00
2019-04-30T10:54:26.488Z,12604.00
2019-04-30T10:55:25.642Z,12452.00
2019-04-30T10:56:25.617Z,12276.00
2019-04-30T10:57:25.589Z,12144.00
2019-04-30T10:58:25.587Z,12072.00
2019-04-30T10:59:25.559Z,12168.00
2019-04-30T11:00:25.548Z,12056.00
2019-04-30T11:01:25.565Z,12044.00
2019-04-30T11:02:25.530Z,11992.00
2019-04-30T11:03:25.531Z,11948.00
2019-04-30T11:04:25.522Z,12380.00
2019-04-30T11:05:25.495Z,12868.00
2019-04-30T11:06:25.504Z,12792.00
2019-04-30T11:07:25.478Z,12584.00
2019-04-30T11:08:25.475Z,11640.00
2019-04-30T11:09:25.456Z,12184.00
2019-04-30T11:10:25.487Z,11964.00
2019-04-30T11:11:25.468Z,11668.00
2019-04-30T11:12:25.430Z,11524.00
2019-04-30T11:13:25.434Z,11536.00
2019-04-30T11:14:25.401Z,11584.00
2019-04-30T11:15:25.397Z,11748.00
2019-04-30T11:16:25.398Z,12112.00
2019-04-30T11:17:25.559Z,12536.00
2019-04-30T11:18:25.602Z,12504.00
2019-04-30T11:19:25.568Z,12180.00
2019-04-30T11:20:25.628Z,11860.00
2019-04-30T11:21:25.505Z,11676.00
2019-04-30T11:22:25.524Z,11384.00
2019-04-30T11:23:25.573Z,11116.00
2019-04-30T11:24:35.918Z,10980.00
2019-04-30T11:25:27.204Z,10960.00
2019-04-30T11:26:25.751Z,10856.00
2019-04-30T11:27:25.880Z,10756.00
2019-04-30T11:28:25.895Z,10716.00
2019-04-30T11:29:25.455Z,10684.00
2019-04-30T11:30:25.502Z,10744.00
2019-04-30T11:31:25.757Z,10680.00
2019-04-30T11:32:25.420Z,10768.00
2019-04-30T11:33:25.211Z,11024.00
2019-04-30T11:34:27.919Z,11052.00
2019-04-30T11:35:25.205Z,10888.00
2019-04-30T11:36:25.178Z,10932.00
2019-04-30T11:37:25.217Z,10688.00
2019-04-30T11:38:25.177Z,10756.00
2019-04-30T11:39:25.143Z,10716.00
2019-04-30T11:40:31.608Z,10548.00
2019-04-30T11:41:32.429Z,10388.00
2019-04-30T11:42:26.121Z,10408.00
2019-04-30T11:43:25.101Z,10420.00
2019-04-30T11:44:30.737Z,10232.00
2019-04-30T11:45:26.235Z,10552.00
2019-04-30T11:46:25.051Z,10652.00
2019-04-30T11:47:25.068Z,9996.00
2019-04-30T11:48:25.054Z,9800.00
2019-04-30T11:49:25.052Z,9688.00
2019-04-30T11:50:25.048Z,9672.00
2019-04-30T11:51:26.980Z,9584.00
2019-04-30T11:52:25.011Z,9592.00
2019-04-30T11:53:28.037Z,9608.00
2019-04-30T11:54:26.015Z,9468.00
2019-04-30T11:55:25.058Z,9340.00
2019-04-30T11:56:24.945Z,9384.00
2019-04-30T11:57:24.950Z,9420.00
2019-04-30T11:58:24.936Z,9332.00
2019-04-30T11:59:24.917Z,9288.00
2019-04-30T12:00:25.075Z,9276.00
2019-04-30T12:01:24.987Z,9276.00
2019-04-30T12:02:24.885Z,9240.00
2019-04-30T12:03:24.931Z,9268.00
2019-04-30T12:04:24.862Z,9020.00
2019-04-30T12:05:24.858Z,9264.00
2019-04-30T12:06:24.865Z,9372.00
2019-04-30T12:07:24.829Z,9304.00
2019-04-30T12:08:26.502Z,9292.00
2019-04-30T12:09:24.835Z,9320.00
2019-04-30T12:10:24.976Z,9436.00
2019-04-30T12:11:24.812Z,9368.00
2019-04-30T12:12:24.781Z,9152.00
2019-04-30T12:13:24.793Z,9056.00
2019-04-30T12:14:24.765Z,9192.00
2019-04-30T12:15:24.786Z,9256.00
2019-04-30T12:16:24.736Z,9380.00
2019-04-30T12:17:24.721Z,9468.00
2019-04-30T12:18:24.715Z,9424.00
2019-04-30T12:19:24.705Z,9356.00